createdAt,value
2022-12-25T00:01:17.160Z,101664.84
2022-12-25T00:03:49.636Z,101664.38
2022-12-25T00:06:16.509Z,101674.06
2022-12-25T00:08:43.519Z,101684.28
2022-12-25T00:11:17.279Z,101688.56
2022-12-25T00:13:47.458Z,101687.94
2022-12-25T00:16:24.158Z,101693.31
2022-12-25T00:18:58.971Z,101686.59
2022-12-25T00:21:25.849Z,101679.84
2022-12-25T00:24:04.211Z,101688.19
2022-12-25T00:26:33.564Z,101687.50
2022-12-25T00:29:00.285Z,101685.84
2022-12-25T00:31:27.368Z,101681.56
2022-12-25T00:33:58.041Z,101681.13
2022-12-25T00:36:24.920Z,101680.16
2022-12-25T00:38:57.161Z,101675.88
2022-12-25T00:41:24.499Z,101679.47
2022-12-25T00:43:56.881Z,101683.75
2022-12-25T00:46:23.739Z,101683.22
2022-12-25T00:48:50.723Z,101673.97
2022-12-25T00:51:17.434Z,101675.06
2022-12-25T00:53:44.117Z,101682.69
2022-12-25T00:56:10.950Z,101679.88
2022-12-25T00:58:37.766Z,101678.91
2022-12-25T01:01:04.499Z,101681.88
2022-12-25T01:03:34.156Z,101673.28
2022-12-25T01:06:06.955Z,101672.06
2022-12-25T01:08:37.055Z,101674.69
2022-12-25T01:11:09.984Z,101674.38
2022-12-25T01:13:37.682Z,101672.72
2022-12-25T01:16:09.914Z,101666.66
2022-12-25T01:18:37.743Z,101669.44
2022-12-25T01:21:14.307Z,101666.44
2022-12-25T01:23:41.106Z,101662.47
2022-12-25T01:26:10.241Z,101670.78
2022-12-25T01:28:37.783Z,101677.44
2022-12-25T01:31:09.687Z,101673.66
2022-12-25T01:33:36.475Z,101683.03
2022-12-25T01:36:03.235Z,101682.78
2022-12-25T01:38:29.920Z,101679.63
2022-12-25T01:40:56.700Z,101686.53
2022-12-25T01:43:29.961Z,101689.31
2022-12-25T01:45:59.989Z,101680.19
2022-12-25T01:48:36.389Z,101668.28
2022-12-25T01:51:15.915Z,101670.88
2022-12-25T01:53:42.582Z,101667.25
2022-12-25T01:56:14.588Z,101671.44
2022-12-25T01:58:45.420Z,101676.84
2022-12-25T02:01:21.235Z,101683.22
2022-12-25T02:03:48.065Z,101679.88
2022-12-25T02:06:14.717Z,101672.59
2022-12-25T02:08:41.924Z,101680.31
2022-12-25T02:11:09.167Z,101682.38
2022-12-25T02:13:35.845Z,101676.75
2022-12-25T02:16:13.264Z,101675.91
2022-12-25T02:18:48.127Z,101687.53
2022-12-25T02:21:35.772Z,101681.03
2022-12-25T02:24:17.443Z,101688.22
2022-12-25T02:27:05.466Z,101690.88
2022-12-25T02:30:13.714Z,101687.97
2022-12-25T02:33:00.496Z,101688.78
2022-12-25T02:35:31.600Z,101690.97
2022-12-25T02:38:06.806Z,101692.19
2022-12-25T02:40:39.623Z,101693.22
2022-12-25T02:43:11.543Z,101695.16
2022-12-25T02:45:48.163Z,101693.44
2022-12-25T02:48:17.310Z,101699.22
2022-12-25T02:50:47.253Z,101701.22
2022-12-25T02:53:14.069Z,101701.63
2022-12-25T02:55:43.123Z,101710.94
2022-12-25T02:58:15.379Z,101718.94
2022-12-25T03:00:47.881Z,101713.06
2022-12-25T03:03:16.472Z,101713.59
2022-12-25T03:05:46.789Z,101713.44
2022-12-25T03:08:19.520Z,101718.09
2022-12-25T03:10:52.821Z,101716.44
2022-12-25T03:13:26.159Z,101715.88
2022-12-25T03:15:53.181Z,101718.75
2022-12-25T03:18:23.620Z,101717.06
2022-12-25T03:20:51.669Z,101709.06
2022-12-25T03:23:25.778Z,101711.53
2022-12-25T03:25:52.617Z,101717.31
2022-12-25T03:28:19.576Z,101715.31
2022-12-25T03:31:12.016Z,101714.19
2022-12-25T03:34:09.151Z,101721.09
2022-12-25T03:37:00.093Z,101725.41
2022-12-25T03:39:45.745Z,101727.94
2022-12-25T03:42:16.032Z,101723.09
2022-12-25T03:45:10.512Z,101721.13
2022-12-25T03:47:46.454Z,101720.31
2022-12-25T03:50:24.337Z,101732.59
2022-12-25T03:52:54.024Z,101723.50
2022-12-25T03:55:23.235Z,101723.97
2022-12-25T03:57:50.168Z,101729.38
2022-12-25T04:00:17.119Z,101724.38
2022-12-25T04:02:44.192Z,101721.75
2022-12-25T04:05:11.020Z,101736.44
2022-12-25T04:07:37.779Z,101734.75
2022-12-25T04:10:04.799Z,101731.41
2022-12-25T04:12:31.518Z,101724.44
2022-12-25T04:14:58.279Z,101729.03
2022-12-25T04:17:25.002Z,101736.09
2022-12-25T04:19:51.787Z,101741.09
2022-12-25T04:22:18.562Z,101746.94
2022-12-25T04:24:49.062Z,101742.25
2022-12-25T04:27:16.758Z,101752.63
2022-12-25T04:29:43.507Z,101744.44
2022-12-25T04:32:11.305Z,101753.56
2022-12-25T04:34:37.940Z,101749.16
2022-12-25T04:37:04.714Z,101746.13
2022-12-25T04:39:33.922Z,101747.78
2022-12-25T04:42:00.660Z,101755.22
2022-12-25T04:44:27.630Z,101755.13
2022-12-25T04:47:01.125Z,101753.59
2022-12-25T04:49:30.282Z,101746.53
2022-12-25T04:51:57.219Z,101749.16
2022-12-25T04:54:23.908Z,101751.78
2022-12-25T04:56:53.457Z,101746.53
2022-12-25T04:59:21.934Z,101758.06
2022-12-25T05:01:48.965Z,101758.56
2022-12-25T05:04:17.990Z,101759.66
2022-12-25T05:06:48.000Z,101763.94
2022-12-25T05:09:14.799Z,101766.13
2022-12-25T05:11:41.502Z,101762.53
2022-12-25T05:14:10.988Z,101767.28
2022-12-25T05:16:37.791Z,101768.78
2022-12-25T05:19:07.605Z,101767.13
2022-12-25T05:21:34.316Z,101770.41
2022-12-25T05:24:01.334Z,101765.03
2022-12-25T05:26:28.132Z,101772.00
2022-12-25T05:28:55.671Z,101772.09
2022-12-25T05:31:22.618Z,101772.22
2022-12-25T05:33:56.884Z,101774.31
2022-12-25T05:36:27.178Z,101775.91
2022-12-25T05:38:54.500Z,101771.00
2022-12-25T05:41:21.304Z,101767.66
2022-12-25T05:43:53.436Z,101769.56
2022-12-25T05:46:20.288Z,101769.19
2022-12-25T05:48:47.056Z,101763.63
2022-12-25T05:51:14.779Z,101765.59
2022-12-25T05:53:43.086Z,101763.72
2022-12-25T05:56:10.352Z,101767.94
2022-12-25T05:58:38.981Z,101771.63
2022-12-25T06:01:12.311Z,101772.06
2022-12-25T06:03:39.058Z,101774.31
2022-12-25T06:06:06.221Z,101776.63
2022-12-25T06:08:33.054Z,101772.50
2022-12-25T06:11:02.199Z,101782.50
2022-12-25T06:13:29.197Z,101779.59
2022-12-25T06:15:55.921Z,101784.72
2022-12-25T06:18:22.727Z,101786.53
2022-12-25T06:20:49.414Z,101785.56
2022-12-25T06:23:16.147Z,101792.91
2022-12-25T06:25:42.864Z,101791.25
2022-12-25T06:28:09.580Z,101794.56
2022-12-25T06:30:36.235Z,101798.03
2022-12-25T06:33:02.882Z,101792.06
2022-12-25T06:35:29.514Z,101796.25
2022-12-25T06:37:56.195Z,101797.91
2022-12-25T06:40:22.905Z,101799.94
2022-12-25T06:42:49.671Z,101797.59
2022-12-25T06:45:18.864Z,101793.16
2022-12-25T06:47:45.666Z,101800.78
2022-12-25T06:50:12.375Z,101795.38
2022-12-25T06:52:39.120Z,101798.16
2022-12-25T06:55:06.713Z,101793.56
2022-12-25T06:57:33.416Z,101793.28
2022-12-25T07:00:00.089Z,101790.50
2022-12-25T07:02:28.622Z,101787.63
2022-12-25T07:04:55.494Z,101778.88
2022-12-25T07:07:22.292Z,101787.84
2022-12-25T07:09:48.982Z,101787.03
2022-12-25T07:12:23.630Z,101798.66
2022-12-25T07:14:52.668Z,101789.94
2022-12-25T07:17:20.567Z,101798.66
2022-12-25T07:19:49.934Z,101803.09
2022-12-25T07:22:17.031Z,101807.41
2022-12-25T07:24:44.021Z,101809.91
2022-12-25T07:27:10.762Z,101814.19
2022-12-25T07:29:37.418Z,101820.44
2022-12-25T07:32:04.499Z,101820.28
2022-12-25T07:34:31.343Z,101825.81
2022-12-25T07:36:58.027Z,101823.19
2022-12-25T07:39:24.834Z,101832.19
2022-12-25T07:41:51.683Z,101836.47
2022-12-25T07:44:18.692Z,101848.81
2022-12-25T07:46:46.118Z,101853.81
2022-12-25T07:49:13.325Z,101849.25
2022-12-25T07:51:40.262Z,101854.38
2022-12-25T07:54:06.996Z,101859.63
2022-12-25T07:56:33.839Z,101852.69
2022-12-25T07:59:00.576Z,101854.38
2022-12-25T08:01:29.767Z,101855.16
2022-12-25T08:03:59.017Z,101861.81
2022-12-25T08:06:31.110Z,101855.44
2022-12-25T08:09:08.695Z,101864.97
2022-12-25T08:11:35.603Z,101870.84
2022-12-25T08:14:09.772Z,101872.63
2022-12-25T08:16:36.691Z,101867.09
2022-12-25T08:19:03.406Z,101863.75
2022-12-25T08:21:32.221Z,101873.19
2022-12-25T08:24:00.497Z,101870.94
2022-12-25T08:26:27.316Z,101874.00
2022-12-25T08:28:54.295Z,101878.13
2022-12-25T08:31:28.563Z,101883.25
2022-12-25T08:33:58.057Z,101876.97
2022-12-25T08:36:25.315Z,101879.13
2022-12-25T08:38:57.023Z,101885.47
2022-12-25T08:41:27.842Z,101885.34
2022-12-25T08:43:59.689Z,101890.88
2022-12-25T08:46:27.035Z,101891.84
2022-12-25T08:48:53.676Z,101887.56
2022-12-25T08:51:27.912Z,101898.94
2022-12-25T08:53:59.319Z,101894.94
2022-12-25T08:56:27.265Z,101900.06
2022-12-25T08:58:58.125Z,101903.50
2022-12-25T09:01:28.222Z,101905.72
2022-12-25T09:03:58.389Z,101902.13
2022-12-25T09:06:25.208Z,101917.81
2022-12-25T09:08:51.960Z,101921.53
2022-12-25T09:11:20.551Z,101916.78
2022-12-25T09:13:47.813Z,101919.16
2022-12-25T09:16:17.737Z,101918.19
2022-12-25T09:18:44.612Z,101922.06
2022-12-25T09:21:14.141Z,101933.75
2022-12-25T09:23:41.067Z,101929.41
2022-12-25T09:26:11.105Z,101937.47
2022-12-25T09:28:37.889Z,101948.84
2022-12-25T09:31:06.479Z,101948.00
2022-12-25T09:33:34.223Z,101954.41
2022-12-25T09:36:04.549Z,101961.63
2022-12-25T09:38:31.922Z,101959.72
2022-12-25T09:41:00.128Z,101957.38
2022-12-25T09:43:31.424Z,101957.63
2022-12-25T09:46:00.559Z,101961.97
2022-12-25T09:48:30.659Z,101969.13
2022-12-25T09:51:05.893Z,101958.06
2022-12-25T09:53:39.489Z,101957.03
2022-12-25T09:56:21.426Z,101956.31
2022-12-25T09:58:48.576Z,101962.41
2022-12-25T10:01:41.377Z,101955.31
2022-12-25T10:04:40.968Z,101957.66
2022-12-25T10:07:08.387Z,101968.56
2022-12-25T10:09:50.182Z,101962.44
2022-12-25T10:12:38.335Z,101962.28
2022-12-25T10:15:15.023Z,101963.63
2022-12-25T10:17:41.633Z,101958.63
2022-12-25T10:20:21.461Z,101955.44
2022-12-25T10:22:53.593Z,101948.16
2022-12-25T10:25:23.377Z,101946.50
2022-12-25T10:27:55.591Z,101945.56
2022-12-25T10:30:24.904Z,101955.47
2022-12-25T10:32:53.088Z,101952.44
2022-12-25T10:35:22.692Z,101958.97
2022-12-25T10:38:19.648Z,101953.69
2022-12-25T10:41:17.128Z,101955.44
2022-12-25T10:43:57.830Z,101958.09
2022-12-25T10:46:29.077Z,101960.34
2022-12-25T10:49:00.409Z,101955.84
2022-12-25T10:51:35.663Z,101953.34
2022-12-25T10:54:28.028Z,101959.56
2022-12-25T10:56:58.506Z,101949.91
2022-12-25T10:59:28.599Z,101947.63
2022-12-25T11:01:57.361Z,101946.97
2022-12-25T11:04:28.165Z,101949.91
2022-12-25T11:07:01.534Z,101946.06
2022-12-25T11:09:28.880Z,101946.06
2022-12-25T11:11:55.675Z,101942.88
2022-12-25T11:14:25.267Z,101941.06
2022-12-25T11:16:53.384Z,101941.75
2022-12-25T11:19:24.761Z,101935.84
2022-12-25T11:21:57.761Z,101939.47
2022-12-25T11:24:30.280Z,101934.72
2022-12-25T11:27:04.965Z,101930.69
2022-12-25T11:29:45.224Z,101929.84
2022-12-25T11:32:22.859Z,101926.91
2022-12-25T11:34:52.204Z,101928.50
2022-12-25T11:37:31.676Z,101920.22
2022-12-25T11:40:02.399Z,101922.16
2022-12-25T11:42:38.259Z,101913.03
2022-12-25T11:45:20.263Z,101918.59
2022-12-25T11:47:50.968Z,101915.28
2022-12-25T11:50:27.839Z,101907.41
2022-12-25T11:52:55.455Z,101902.06
2022-12-25T11:55:37.975Z,101889.47
2022-12-25T11:58:21.838Z,101889.78
2022-12-25T12:00:52.316Z,101887.41
2022-12-25T12:03:37.858Z,101897.50
2022-12-25T12:06:27.193Z,101883.84
2022-12-25T12:09:01.728Z,101882.88
2022-12-25T12:11:41.389Z,101873.81
2022-12-25T12:14:55.422Z,101873.13
2022-12-25T12:17:22.294Z,101874.88
2022-12-25T12:19:49.127Z,101876.03
2022-12-25T12:22:21.471Z,101870.44
2022-12-25T12:25:14.669Z,101871.41
2022-12-25T12:27:45.873Z,101871.28
2022-12-25T12:30:42.945Z,101868.78
2022-12-25T12:33:20.718Z,101864.72
2022-12-25T12:35:48.928Z,101870.38
2022-12-25T12:38:19.819Z,101867.59
2022-12-25T12:41:00.526Z,101872.28
2022-12-25T12:43:27.137Z,101860.81
2022-12-25T12:46:02.591Z,101863.91
2022-12-25T12:48:30.239Z,101859.03
2022-12-25T12:51:12.726Z,101869.34
2022-12-25T12:53:41.765Z,101864.50
2022-12-25T12:56:19.761Z,101868.94
2022-12-25T12:58:50.365Z,101863.53
2022-12-25T13:01:44.938Z,101860.50
2022-12-25T13:04:34.587Z,101864.44
2022-12-25T13:07:23.525Z,101873.03
2022-12-25T13:09:59.236Z,101864.66
2022-12-25T13:12:26.167Z,101865.84
2022-12-25T13:14:55.542Z,101877.66
2022-12-25T13:17:24.814Z,101875.84
2022-12-25T13:19:56.028Z,101870.75
2022-12-25T13:22:35.690Z,101875.34
2022-12-25T13:25:06.829Z,101872.16
2022-12-25T13:27:34.023Z,101871.56
2022-12-25T13:30:11.311Z,101876.16
2022-12-25T13:32:37.969Z,101882.28
2022-12-25T13:35:06.664Z,101874.66
2022-12-25T13:37:33.333Z,101878.97
2022-12-25T13:40:03.770Z,101878.97
2022-12-25T13:42:33.205Z,101883.25
2022-12-25T13:45:18.840Z,101873.69
2022-12-25T13:47:53.037Z,101872.56
2022-12-25T13:50:28.936Z,101875.84
2022-12-25T13:53:01.220Z,101879.31
2022-12-25T13:55:29.496Z,101884.59
2022-12-25T13:57:59.235Z,101874.03
2022-12-25T14:00:32.605Z,101877.66
2022-12-25T14:02:59.960Z,101884.25
2022-12-25T14:05:41.640Z,101877.66
2022-12-25T14:08:23.208Z,101886.84
2022-12-25T14:10:52.629Z,101882.78
2022-12-25T14:13:27.741Z,101886.94
2022-12-25T14:16:08.009Z,101894.94
2022-12-25T14:18:34.872Z,101893.41
2022-12-25T14:21:05.066Z,101885.28
2022-12-25T14:23:50.885Z,101894.03
2022-12-25T14:26:20.176Z,101892.38
2022-12-25T14:28:57.730Z,101891.88
2022-12-25T14:31:24.988Z,101887.09
2022-12-25T14:33:52.675Z,101890.13
2022-12-25T14:36:22.469Z,101889.72
2022-12-25T14:39:00.722Z,101890.19
2022-12-25T14:41:39.626Z,101881.44
2022-12-25T14:44:36.103Z,101892.16
2022-12-25T14:47:17.685Z,101892.69
2022-12-25T14:49:46.988Z,101890.34
2022-12-25T14:52:24.119Z,101892.50
2022-12-25T14:54:59.800Z,101886.59
2022-12-25T14:57:37.310Z,101891.31
2022-12-25T15:00:40.373Z,101895.94
2022-12-25T15:03:25.533Z,101889.31
2022-12-25T15:06:06.753Z,101897.22
2022-12-25T15:08:34.734Z,101892.91
2022-12-25T15:11:03.051Z,101898.19
2022-12-25T15:13:31.740Z,101902.88
2022-12-25T15:15:58.552Z,101897.72
2022-12-25T15:18:30.465Z,101898.06
2022-12-25T15:20:57.412Z,101907.47
2022-12-25T15:23:24.108Z,101892.78
2022-12-25T15:25:53.079Z,101896.25
2022-12-25T15:28:20.350Z,101903.47
2022-12-25T15:30:47.173Z,101898.34
2022-12-25T15:33:15.798Z,101897.84
2022-12-25T15:35:42.926Z,101899.47
2022-12-25T15:38:09.850Z,101903.41
2022-12-25T15:40:36.568Z,101901.25
2022-12-25T15:43:11.480Z,101897.50
2022-12-25T15:45:49.204Z,101901.44
2022-12-25T15:48:18.387Z,101899.78
2022-12-25T15:50:45.047Z,101900.09
2022-12-25T15:53:14.586Z,101906.66
2022-12-25T15:55:42.749Z,101900.03
2022-12-25T15:58:12.932Z,101900.16
2022-12-25T16:00:39.609Z,101893.91
2022-12-25T16:03:06.465Z,101904.47
2022-12-25T16:05:45.022Z,101907.09
2022-12-25T16:08:14.830Z,101908.75
2022-12-25T16:10:41.765Z,101904.56
2022-12-25T16:13:08.614Z,101909.16
2022-12-25T16:15:35.852Z,101905.81
2022-12-25T16:18:02.956Z,101904.84
2022-12-25T16:20:30.037Z,101906.44
2022-12-25T16:22:56.889Z,101907.34
2022-12-25T16:25:23.740Z,101914.84
2022-12-25T16:27:50.507Z,101913.22
2022-12-25T16:30:18.432Z,101910.72
2022-12-25T16:32:49.646Z,101911.84
2022-12-25T16:35:16.709Z,101918.22
2022-12-25T16:37:45.880Z,101918.41
2022-12-25T16:40:12.657Z,101926.84
2022-12-25T16:42:39.396Z,101933.41
2022-12-25T16:45:07.107Z,101932.13
2022-12-25T16:47:33.834Z,101935.06
2022-12-25T16:50:00.660Z,101934.66
2022-12-25T16:52:27.400Z,101941.31
2022-12-25T16:54:57.898Z,101941.97
2022-12-25T16:57:25.096Z,101936.03
2022-12-25T16:59:51.913Z,101938.00
2022-12-25T17:02:21.839Z,101939.09
2022-12-25T17:04:51.686Z,101934.66
2022-12-25T17:07:18.649Z,101937.16
2022-12-25T17:09:50.240Z,101937.31
2022-12-25T17:12:19.841Z,101933.97
2022-12-25T17:14:48.349Z,101940.91
2022-12-25T17:17:15.162Z,101952.44
2022-12-25T17:19:41.860Z,101953.28
2022-12-25T17:22:08.625Z,101949.66
2022-12-25T17:24:36.870Z,101955.06
2022-12-25T17:27:04.259Z,101957.72
2022-12-25T17:29:31.282Z,101958.25
2022-12-25T17:31:58.061Z,101963.53
2022-12-25T17:34:24.960Z,101961.03
2022-12-25T17:36:53.283Z,101957.44
2022-12-25T17:39:20.187Z,101957.44
2022-12-25T17:41:49.971Z,101963.41
2022-12-25T17:44:17.423Z,101964.09
2022-12-25T17:46:44.194Z,101959.72
2022-12-25T17:49:15.916Z,101963.78
2022-12-25T17:51:42.721Z,101966.19
2022-12-25T17:54:09.784Z,101960.22
2022-12-25T17:56:37.033Z,101963.81
2022-12-25T17:59:13.556Z,101973.16
2022-12-25T18:01:40.411Z,101974.81
2022-12-25T18:04:07.278Z,101972.34
2022-12-25T18:06:35.635Z,101967.06
2022-12-25T18:09:03.836Z,101972.19
2022-12-25T18:11:30.869Z,101973.03
2022-12-25T18:14:04.309Z,101971.34
2022-12-25T18:16:34.927Z,101965.06
2022-12-25T18:19:02.440Z,101965.81
2022-12-25T18:21:30.123Z,101961.53
2022-12-25T18:24:06.136Z,101956.03
2022-12-25T18:26:33.375Z,101968.66
2022-12-25T18:29:00.200Z,101962.88
2022-12-25T18:31:28.066Z,101961.25
2022-12-25T18:33:57.474Z,101966.53
2022-12-25T18:36:28.589Z,101962.53
2022-12-25T18:38:58.496Z,101961.38
2022-12-25T18:41:28.180Z,101960.91
2022-12-25T18:43:55.799Z,101963.00
2022-12-25T18:46:24.935Z,101961.72
2022-12-25T18:48:53.010Z,101958.03
2022-12-25T18:51:23.149Z,101954.84
2022-12-25T18:53:52.832Z,101968.63
2022-12-25T18:56:22.709Z,101957.25
2022-12-25T18:58:49.543Z,101972.09
2022-12-25T19:01:25.408Z,101967.19
2022-12-25T19:04:04.092Z,101962.91
2022-12-25T19:06:32.122Z,101963.72
2022-12-25T19:08:58.823Z,101962.91
2022-12-25T19:11:25.897Z,101970.97
2022-12-25T19:13:52.764Z,101965.69
2022-12-25T19:16:19.511Z,101952.53
2022-12-25T19:18:46.696Z,101965.81
2022-12-25T19:21:13.732Z,101969.56
2022-12-25T19:23:40.727Z,101970.53
2022-12-25T19:26:08.738Z,101971.34
2022-12-25T19:28:36.257Z,101963.44
2022-12-25T19:31:05.015Z,101966.91
2022-12-25T19:33:32.114Z,101967.09
2022-12-25T19:36:08.116Z,101967.88
2022-12-25T19:38:35.554Z,101972.38
2022-12-25T19:41:13.260Z,101971.94
2022-12-25T19:43:44.576Z,101968.91
2022-12-25T19:46:17.734Z,101967.00
2022-12-25T19:48:44.505Z,101974.94
2022-12-25T19:51:20.271Z,101972.94
2022-12-25T19:53:47.178Z,101971.63
2022-12-25T19:56:14.393Z,101980.63
2022-12-25T19:58:41.332Z,101981.00
2022-12-25T20:01:12.290Z,101984.75
2022-12-25T20:03:45.746Z,101984.28
2022-12-25T20:06:31.400Z,101978.78
2022-12-25T20:09:24.216Z,101983.66
2022-12-25T20:11:51.357Z,101987.03
2022-12-25T20:14:20.732Z,101987.31
2022-12-25T20:16:49.348Z,101993.56
2022-12-25T20:19:16.336Z,101987.78
2022-12-25T20:21:43.454Z,101987.63
2022-12-25T20:24:10.428Z,101995.94
2022-12-25T20:26:39.483Z,101992.31
2022-12-25T20:29:06.895Z,101996.91
2022-12-25T20:31:36.258Z,101991.78
2022-12-25T20:34:12.069Z,101988.28
2022-12-25T20:36:39.386Z,101991.63
2022-12-25T20:39:08.020Z,101988.28
2022-12-25T20:41:34.936Z,101998.19
2022-12-25T20:44:01.730Z,102003.47
2022-12-25T20:46:29.475Z,101997.19
2022-12-25T20:48:56.354Z,102005.75
2022-12-25T20:51:25.507Z,102001.91
2022-12-25T20:53:53.803Z,102007.31
2022-12-25T20:56:22.582Z,102002.72
2022-12-25T20:58:56.938Z,102002.19
2022-12-25T21:01:24.166Z,102003.25
2022-12-25T21:03:54.502Z,102003.38
2022-12-25T21:06:22.185Z,102005.47
2022-12-25T21:08:49.801Z,102004.09
2022-12-25T21:11:16.925Z,102006.19
2022-12-25T21:13:46.625Z,101999.25
2022-12-25T21:16:19.051Z,102010.78
2022-12-25T21:18:49.370Z,102011.75
2022-12-25T21:21:18.615Z,102008.28
2022-12-25T21:23:45.690Z,102016.84
2022-12-25T21:26:24.846Z,102012.88
2022-12-25T21:29:00.881Z,102020.94
2022-12-25T21:31:29.519Z,102021.72
2022-12-25T21:33:58.832Z,102028.66
2022-12-25T21:36:29.264Z,102025.53
2022-12-25T21:39:08.499Z,102033.31
2022-12-25T21:41:37.263Z,102036.69
2022-12-25T21:44:04.494Z,102028.44
2022-12-25T21:46:32.330Z,102038.69
2022-12-25T21:49:02.839Z,102034.00
2022-12-25T21:51:32.348Z,102041.66
2022-12-25T21:54:00.529Z,102039.28
2022-12-25T21:56:31.545Z,102044.00
2022-12-25T21:59:04.118Z,102046.63
2022-12-25T22:01:31.890Z,102043.84
2022-12-25T22:04:04.957Z,102043.75
2022-12-25T22:06:32.996Z,102049.75
2022-12-25T22:09:02.544Z,102049.50
2022-12-25T22:11:29.921Z,102049.59
2022-12-25T22:13:57.825Z,102042.69
2022-12-25T22:16:28.106Z,102047.84
2022-12-25T22:18:55.011Z,102039.38
2022-12-25T22:21:24.439Z,102037.53
2022-12-25T22:23:54.846Z,102029.78
2022-12-25T22:26:21.651Z,102024.72
2022-12-25T22:28:51.154Z,102024.03
2022-12-25T22:31:18.787Z,102020.31
2022-12-25T22:33:46.779Z,102021.97
2022-12-25T22:36:13.569Z,102025.28
2022-12-25T22:38:42.976Z,102026.41
2022-12-25T22:41:10.504Z,102018.50
2022-12-25T22:44:15.299Z,102018.91
2022-12-25T22:46:26.152Z,102023.03
2022-12-25T22:49:00.348Z,102034.94
2022-12-25T22:51:27.395Z,102021.25
2022-12-25T22:53:57.478Z,102033.03
2022-12-25T22:56:28.957Z,102034.06
2022-12-25T22:58:57.483Z,102037.09
2022-12-25T23:01:24.388Z,102033.63
2022-12-25T23:03:55.302Z,102043.34
2022-12-25T23:06:22.282Z,102032.53
2022-12-25T23:08:49.365Z,102032.31
2022-12-25T23:11:16.923Z,102036.81
2022-12-25T23:13:43.908Z,102033.94
2022-12-25T23:16:16.877Z,102039.38
2022-12-25T23:18:44.266Z,102046.09
2022-12-25T23:21:16.110Z,102055.28
2022-12-25T23:23:43.308Z,102050.41
2022-12-25T23:26:11.713Z,102044.81
2022-12-25T23:28:41.831Z,102042.50
2022-12-25T23:31:08.941Z,102044.97
2022-12-25T23:33:35.845Z,102044.66
2022-12-25T23:36:02.762Z,102040.56
2022-12-25T23:38:31.113Z,102044.50
2022-12-25T23:40:58.303Z,102044.38
2022-12-25T23:43:27.667Z,102044.91
2022-12-25T23:45:54.576Z,102043.66
2022-12-25T23:48:22.456Z,102023.75
2022-12-25T23:50:49.065Z,102029.72
2022-12-25T23:53:16.180Z,102035.28
2022-12-25T23:55:43.576Z,102021.41
2022-12-25T23:58:10.900Z,102021.84
